sensor_id;sensor_type;location;lat;lon;timestamp;P1;durP1;ratioP1;P2;durP2;ratioP2
3050;SDS011;1535;51.098;6.414;2023-04-24T00:00:46;8.97;;;8.37;;
3050;SDS011;1535;51.098;6.414;2023-04-24T00:03:13;8.40;;;8.10;;
3050;SDS011;1535;51.098;6.414;2023-04-24T00:05:40;7.47;;;7.17;;
3050;SDS011;1535;51.098;6.414;2023-04-24T00:08:10;8.50;;;8.10;;
3050;SDS011;1535;51.098;6.414;2023-04-24T00:10:38;7.23;;;6.93;;
3050;SDS011;1535;51.098;6.414;2023-04-24T00:13:05;6.97;;;6.67;;
3050;SDS011;1535;51.098;6.414;2023-04-24T00:15:32;6.87;;;6.67;;
3050;SDS011;1535;51.098;6.414;2023-04-24T00:17:59;6.60;;;6.40;;
3050;SDS011;1535;51.098;6.414;2023-04-24T00:20:27;7.60;;;7.20;;
3050;SDS011;1535;51.098;6.414;2023-04-24T00:22:55;6.97;;;6.77;;
3050;SDS011;1535;51.098;6.414;2023-04-24T00:25:23;7.60;;;7.17;;
3050;SDS011;1535;51.098;6.414;2023-04-24T00:27:50;7.57;;;7.27;;
3050;SDS011;1535;51.098;6.414;2023-04-24T00:30:17;7.10;;;6.90;;
3050;SDS011;1535;51.098;6.414;2023-04-24T00:32:44;8.53;;;8.13;;
3050;SDS011;1535;51.098;6.414;2023-04-24T00:35:11;7.60;;;7.30;;
3050;SDS011;1535;51.098;6.414;2023-04-24T00:37:38;8.47;;;8.03;;
3050;SDS011;1535;51.098;6.414;2023-04-24T00:40:06;7.53;;;7.33;;
3050;SDS011;1535;51.098;6.414;2023-04-24T00:42:34;8.60;;;8.20;;
3050;SDS011;1535;51.098;6.414;2023-04-24T00:45:01;9.53;;;8.97;;
3050;SDS011;1535;51.098;6.414;2023-04-24T00:47:29;9.17;;;8.57;;
3050;SDS011;1535;51.098;6.414;2023-04-24T00:49:56;8.40;;;8.00;;
3050;SDS011;1535;51.098;6.414;2023-04-24T00:52:22;8.67;;;8.07;;
3050;SDS011;1535;51.098;6.414;2023-04-24T00:54:50;10.77;;;10.07;;
3050;SDS011;1535;51.098;6.414;2023-04-24T00:57:17;9.57;;;8.90;;
3050;SDS011;1535;51.098;6.414;2023-04-24T00:59:45;8.70;;;8.33;;
3050;SDS011;1535;51.098;6.414;2023-04-24T01:02:12;12.97;;;12.00;;
3050;SDS011;1535;51.098;6.414;2023-04-24T01:04:40;8.57;;;8.07;;
3050;SDS011;1535;51.098;6.414;2023-04-24T01:07:07;7.53;;;7.23;;
3050;SDS011;1535;51.098;6.414;2023-04-24T01:09:36;11.73;;;8.67;;
3050;SDS011;1535;51.098;6.414;2023-04-24T01:12:06;9.97;;;9.27;;
3050;SDS011;1535;51.098;6.414;2023-04-24T01:14:34;10.37;;;9.67;;
3050;SDS011;1535;51.098;6.414;2023-04-24T01:17:02;10.30;;;9.50;;
3050;SDS011;1535;51.098;6.414;2023-04-24T01:19:29;10.47;;;9.57;;
3050;SDS011;1535;51.098;6.414;2023-04-24T01:21:58;9.40;;;8.67;;
3050;SDS011;1535;51.098;6.414;2023-04-24T01:24:30;11.07;;;10.37;;
3050;SDS011;1535;51.098;6.414;2023-04-24T01:26:57;8.80;;;8.40;;
3050;SDS011;1535;51.098;6.414;2023-04-24T01:29:23;10.13;;;9.30;;
3050;SDS011;1535;51.098;6.414;2023-04-24T01:31:51;11.77;;;10.97;;
3050;SDS011;1535;51.098;6.414;2023-04-24T01:34:18;10.20;;;9.50;;
3050;SDS011;1535;51.098;6.414;2023-04-24T01:36:45;9.80;;;8.93;;
3050;SDS011;1535;51.098;6.414;2023-04-24T01:39:13;9.53;;;8.83;;
3050;SDS011;1535;51.098;6.414;2023-04-24T01:41:42;57.80;;;9.70;;
3050;SDS011;1535;51.098;6.414;2023-04-24T01:44:09;9.63;;;8.97;;
3050;SDS011;1535;51.098;6.414;2023-04-24T01:46:36;11.10;;;9.80;;
3050;SDS011;1535;51.098;6.414;2023-04-24T01:49:03;10.30;;;9.53;;
3050;SDS011;1535;51.098;6.414;2023-04-24T01:51:32;9.23;;;8.70;;
3050;SDS011;1535;51.098;6.414;2023-04-24T01:53:58;14.63;;;12.10;;
3050;SDS011;1535;51.098;6.414;2023-04-24T01:56:26;11.10;;;10.20;;
3050;SDS011;1535;51.098;6.414;2023-04-24T01:58:57;15.53;;;11.70;;
3050;SDS011;1535;51.098;6.414;2023-04-24T02:01:24;13.27;;;11.60;;
3050;SDS011;1535;51.098;6.414;2023-04-24T02:03:51;48.63;;;18.40;;
3050;SDS011;1535;51.098;6.414;2023-04-24T02:06:18;11.17;;;10.30;;
3050;SDS011;1535;51.098;6.414;2023-04-24T02:08:45;16.10;;;10.30;;
3050;SDS011;1535;51.098;6.414;2023-04-24T02:11:12;15.43;;;10.43;;
3050;SDS011;1535;51.098;6.414;2023-04-24T02:13:39;12.57;;;10.60;;
3050;SDS011;1535;51.098;6.414;2023-04-24T02:16:08;12.20;;;11.10;;
3050;SDS011;1535;51.098;6.414;2023-04-24T02:18:35;10.60;;;9.80;;
3050;SDS011;1535;51.098;6.414;2023-04-24T02:21:02;14.20;;;12.73;;
3050;SDS011;1535;51.098;6.414;2023-04-24T02:23:30;11.93;;;10.70;;
3050;SDS011;1535;51.098;6.414;2023-04-24T02:25:57;11.93;;;10.90;;
3050;SDS011;1535;51.098;6.414;2023-04-24T02:28:23;10.40;;;9.60;;
3050;SDS011;1535;51.098;6.414;2023-04-24T02:30:50;13.97;;;12.10;;
3050;SDS011;1535;51.098;6.414;2023-04-24T02:33:19;20.53;;;11.63;;
3050;SDS011;1535;51.098;6.414;2023-04-24T02:35:45;12.33;;;11.20;;
3050;SDS011;1535;51.098;6.414;2023-04-24T02:38:12;11.00;;;9.87;;
3050;SDS011;1535;51.098;6.414;2023-04-24T02:40:39;10.03;;;9.00;;
3050;SDS011;1535;51.098;6.414;2023-04-24T02:43:07;8.03;;;7.73;;
3050;SDS011;1535;51.098;6.414;2023-04-24T02:45:34;11.33;;;10.50;;
3050;SDS011;1535;51.098;6.414;2023-04-24T02:48:01;12.80;;;11.90;;
3050;SDS011;1535;51.098;6.414;2023-04-24T02:50:29;8.37;;;8.07;;
3050;SDS011;1535;51.098;6.414;2023-04-24T02:52:56;9.33;;;8.50;;
3050;SDS011;1535;51.098;6.414;2023-04-24T02:55:23;9.70;;;9.00;;
3050;SDS011;1535;51.098;6.414;2023-04-24T02:57:51;9.47;;;8.83;;
3050;SDS011;1535;51.098;6.414;2023-04-24T03:00:18;10.87;;;10.17;;
3050;SDS011;1535;51.098;6.414;2023-04-24T03:02:45;10.70;;;10.00;;
3050;SDS011;1535;51.098;6.414;2023-04-24T03:05:14;10.67;;;10.00;;
3050;SDS011;1535;51.098;6.414;2023-04-24T03:07:42;14.60;;;13.20;;
3050;SDS011;1535;51.098;6.414;2023-04-24T03:10:10;8.60;;;8.10;;
3050;SDS011;1535;51.098;6.414;2023-04-24T03:12:38;8.53;;;8.20;;
3050;SDS011;1535;51.098;6.414;2023-04-24T03:15:05;8.80;;;8.07;;
3050;SDS011;1535;51.098;6.414;2023-04-24T03:17:32;8.30;;;7.90;;
3050;SDS011;1535;51.098;6.414;2023-04-24T03:20:01;10.43;;;9.50;;
3050;SDS011;1535;51.098;6.414;2023-04-24T03:22:28;10.70;;;9.93;;
3050;SDS011;1535;51.098;6.414;2023-04-24T03:24:56;8.37;;;8.07;;
3050;SDS011;1535;51.098;6.414;2023-04-24T03:27:23;8.60;;;8.20;;
3050;SDS011;1535;51.098;6.414;2023-04-24T03:29:50;9.87;;;9.30;;
3050;SDS011;1535;51.098;6.414;2023-04-24T03:32:20;12.30;;;11.33;;
3050;SDS011;1535;51.098;6.414;2023-04-24T03:34:46;10.50;;;9.73;;
3050;SDS011;1535;51.098;6.414;2023-04-24T03:37:13;9.73;;;9.17;;
3050;SDS011;1535;51.098;6.414;2023-04-24T03:39:40;12.33;;;11.07;;
3050;SDS011;1535;51.098;6.414;2023-04-24T03:42:09;12.00;;;10.77;;
3050;SDS011;1535;51.098;6.414;2023-04-24T03:44:35;9.67;;;9.07;;
3050;SDS011;1535;51.098;6.414;2023-04-24T03:47:02;11.33;;;10.53;;
3050;SDS011;1535;51.098;6.414;2023-04-24T03:49:30;16.20;;;12.63;;
3050;SDS011;1535;51.098;6.414;2023-04-24T03:51:57;12.73;;;11.70;;
3050;SDS011;1535;51.098;6.414;2023-04-24T03:54:23;11.00;;;10.27;;
3050;SDS011;1535;51.098;6.414;2023-04-24T03:56:51;10.90;;;10.20;;
3050;SDS011;1535;51.098;6.414;2023-04-24T03:59:19;12.07;;;10.87;;
3050;SDS011;1535;51.098;6.414;2023-04-24T04:01:46;8.33;;;7.93;;
3050;SDS011;1535;51.098;6.414;2023-04-24T04:04:13;9.43;;;9.03;;
3050;SDS011;1535;51.098;6.414;2023-04-24T04:06:40;8.80;;;8.40;;
3050;SDS011;1535;51.098;6.414;2023-04-24T04:09:07;10.20;;;9.40;;
3050;SDS011;1535;51.098;6.414;2023-04-24T04:11:34;9.20;;;8.70;;
3050;SDS011;1535;51.098;6.414;2023-04-24T04:14:01;13.77;;;12.50;;
3050;SDS011;1535;51.098;6.414;2023-04-24T04:16:30;10.47;;;9.87;;
3050;SDS011;1535;51.098;6.414;2023-04-24T04:18:57;9.40;;;9.00;;
3050;SDS011;1535;51.098;6.414;2023-04-24T04:21:24;8.20;;;7.90;;
3050;SDS011;1535;51.098;6.414;2023-04-24T04:23:51;10.10;;;9.40;;
3050;SDS011;1535;51.098;6.414;2023-04-24T04:26:18;11.37;;;10.37;;
3050;SDS011;1535;51.098;6.414;2023-04-24T04:28:46;10.00;;;9.40;;
3050;SDS011;1535;51.098;6.414;2023-04-24T04:31:13;11.83;;;11.00;;
3050;SDS011;1535;51.098;6.414;2023-04-24T04:33:42;13.63;;;12.57;;
3050;SDS011;1535;51.098;6.414;2023-04-24T04:36:09;14.47;;;13.03;;
3050;SDS011;1535;51.098;6.414;2023-04-24T04:38:37;10.47;;;9.80;;
3050;SDS011;1535;51.098;6.414;2023-04-24T04:41:05;9.83;;;9.13;;
3050;SDS011;1535;51.098;6.414;2023-04-24T04:43:33;12.97;;;12.07;;
3050;SDS011;1535;51.098;6.414;2023-04-24T04:45:59;9.97;;;9.40;;
3050;SDS011;1535;51.098;6.414;2023-04-24T04:48:28;14.00;;;12.80;;
3050;SDS011;1535;51.098;6.414;2023-04-24T04:50:57;12.17;;;11.27;;
3050;SDS011;1535;51.098;6.414;2023-04-24T04:53:24;12.67;;;11.77;;
3050;SDS011;1535;51.098;6.414;2023-04-24T04:55:52;12.83;;;11.90;;
3050;SDS011;1535;51.098;6.414;2023-04-24T04:58:19;12.43;;;11.63;;
3050;SDS011;1535;51.098;6.414;2023-04-24T05:00:46;13.27;;;12.57;;
3050;SDS011;1535;51.098;6.414;2023-04-24T05:03:13;15.13;;;14.13;;
3050;SDS011;1535;51.098;6.414;2023-04-24T05:05:40;20.20;;;18.80;;
3050;SDS011;1535;51.098;6.414;2023-04-24T05:08:08;17.73;;;16.10;;
3050;SDS011;1535;51.098;6.414;2023-04-24T05:10:35;17.73;;;16.83;;
3050;SDS011;1535;51.098;6.414;2023-04-24T05:13:02;18.90;;;17.57;;
3050;SDS011;1535;51.098;6.414;2023-04-24T05:15:30;17.97;;;16.97;;
3050;SDS011;1535;51.098;6.414;2023-04-24T05:17:56;15.50;;;14.80;;
3050;SDS011;1535;51.098;6.414;2023-04-24T05:20:24;17.40;;;16.40;;
3050;SDS011;1535;51.098;6.414;2023-04-24T05:22:51;16.13;;;15.13;;
3050;SDS011;1535;51.098;6.414;2023-04-24T05:25:19;16.23;;;15.33;;
3050;SDS011;1535;51.098;6.414;2023-04-24T05:27:47;15.20;;;14.40;;
3050;SDS011;1535;51.098;6.414;2023-04-24T05:30:13;19.60;;;15.70;;
3050;SDS011;1535;51.098;6.414;2023-04-24T05:32:41;17.23;;;16.10;;
3050;SDS011;1535;51.098;6.414;2023-04-24T05:35:08;15.73;;;14.73;;
3050;SDS011;1535;51.098;6.414;2023-04-24T05:37:35;14.47;;;13.67;;
3050;SDS011;1535;51.098;6.414;2023-04-24T05:40:02;15.23;;;14.30;;
3050;SDS011;1535;51.098;6.414;2023-04-24T05:42:31;15.63;;;14.63;;
3050;SDS011;1535;51.098;6.414;2023-04-24T05:44:58;14.93;;;14.03;;
3050;SDS011;1535;51.098;6.414;2023-04-24T05:47:25;16.87;;;15.50;;
3050;SDS011;1535;51.098;6.414;2023-04-24T05:49:52;14.73;;;14.03;;
3050;SDS011;1535;51.098;6.414;2023-04-24T05:52:19;16.57;;;15.67;;
3050;SDS011;1535;51.098;6.414;2023-04-24T05:54:45;18.30;;;17.20;;
3050;SDS011;1535;51.098;6.414;2023-04-24T05:57:12;16.80;;;15.87;;
3050;SDS011;1535;51.098;6.414;2023-04-24T05:59:40;16.23;;;15.23;;
3050;SDS011;1535;51.098;6.414;2023-04-24T06:02:08;14.90;;;14.10;;
3050;SDS011;1535;51.098;6.414;2023-04-24T06:04:35;13.60;;;12.97;;
3050;SDS011;1535;51.098;6.414;2023-04-24T06:07:02;15.33;;;14.43;;
3050;SDS011;1535;51.098;6.414;2023-04-24T06:09:29;15.13;;;14.23;;
3050;SDS011;1535;51.098;6.414;2023-04-24T06:11:56;14.70;;;13.70;;
3050;SDS011;1535;51.098;6.414;2023-04-24T06:14:23;13.80;;;13.20;;
3050;SDS011;1535;51.098;6.414;2023-04-24T06:16:51;14.20;;;13.47;;
3050;SDS011;1535;51.098;6.414;2023-04-24T06:19:18;15.00;;;14.13;;
3050;SDS011;1535;51.098;6.414;2023-04-24T06:21:45;13.30;;;12.60;;
3050;SDS011;1535;51.098;6.414;2023-04-24T06:24:13;13.60;;;12.80;;
3050;SDS011;1535;51.098;6.414;2023-04-24T06:26:41;12.03;;;11.50;;
3050;SDS011;1535;51.098;6.414;2023-04-24T06:29:08;12.47;;;11.67;;
3050;SDS011;1535;51.098;6.414;2023-04-24T06:31:35;11.03;;;10.53;;
3050;SDS011;1535;51.098;6.414;2023-04-24T06:34:04;10.67;;;10.17;;
3050;SDS011;1535;51.098;6.414;2023-04-24T06:36:31;12.50;;;11.60;;
3050;SDS011;1535;51.098;6.414;2023-04-24T06:38:59;11.10;;;10.60;;
3050;SDS011;1535;51.098;6.414;2023-04-24T06:41:26;10.90;;;10.40;;
3050;SDS011;1535;51.098;6.414;2023-04-24T06:43:54;10.93;;;10.40;;
3050;SDS011;1535;51.098;6.414;2023-04-24T06:46:21;14.20;;;10.87;;
3050;SDS011;1535;51.098;6.414;2023-04-24T06:48:51;11.40;;;10.70;;
3050;SDS011;1535;51.098;6.414;2023-04-24T06:51:21;12.33;;;11.40;;
3050;SDS011;1535;51.098;6.414;2023-04-24T06:53:48;10.57;;;9.97;;
3050;SDS011;1535;51.098;6.414;2023-04-24T06:56:16;8.63;;;8.23;;
3050;SDS011;1535;51.098;6.414;2023-04-24T06:58:42;8.87;;;8.27;;
3050;SDS011;1535;51.098;6.414;2023-04-24T07:01:10;8.07;;;7.77;;
3050;SDS011;1535;51.098;6.414;2023-04-24T08:18:00;4.17;;;3.87;;
3050;SDS011;1535;51.098;6.414;2023-04-24T08:20:27;17.03;;;5.50;;
3050;SDS011;1535;51.098;6.414;2023-04-24T08:22:54;4.40;;;3.90;;
3050;SDS011;1535;51.098;6.414;2023-04-24T08:25:21;4.40;;;4.00;;
3050;SDS011;1535;51.098;6.414;2023-04-24T08:27:49;8.10;;;4.70;;
3050;SDS011;1535;51.098;6.414;2023-04-24T08:30:17;4.60;;;4.10;;
3050;SDS011;1535;51.098;6.414;2023-04-24T08:32:44;7.33;;;4.70;;
3050;SDS011;1535;51.098;6.414;2023-04-24T08:35:13;3.67;;;3.37;;
3050;SDS011;1535;51.098;6.414;2023-04-24T08:37:39;5.17;;;4.57;;
3050;SDS011;1535;51.098;6.414;2023-04-24T08:40:09;5.07;;;4.70;;
3050;SDS011;1535;51.098;6.414;2023-04-24T08:42:41;7.23;;;5.57;;
3050;SDS011;1535;51.098;6.414;2023-04-24T08:45:09;6.83;;;4.13;;
3050;SDS011;1535;51.098;6.414;2023-04-24T08:47:37;4.93;;;3.90;;
3050;SDS011;1535;51.098;6.414;2023-04-24T08:50:05;5.70;;;4.63;;
3050;SDS011;1535;51.098;6.414;2023-04-24T08:52:34;3.40;;;3.10;;
3050;SDS011;1535;51.098;6.414;2023-04-24T08:55:02;14.83;;;4.13;;
3050;SDS011;1535;51.098;6.414;2023-04-24T08:57:29;6.23;;;5.63;;
3050;SDS011;1535;51.098;6.414;2023-04-24T08:59:57;4.27;;;3.90;;
3050;SDS011;1535;51.098;6.414;2023-04-24T09:02:26;5.73;;;5.10;;
3050;SDS011;1535;51.098;6.414;2023-04-24T09:04:52;5.70;;;5.23;;
3050;SDS011;1535;51.098;6.414;2023-04-24T09:07:20;5.33;;;4.93;;
3050;SDS011;1535;51.098;6.414;2023-04-24T09:09:52;7.63;;;5.10;;
3050;SDS011;1535;51.098;6.414;2023-04-24T09:12:20;6.30;;;5.17;;
3050;SDS011;1535;51.098;6.414;2023-04-24T09:14:48;7.00;;;5.40;;
3050;SDS011;1535;51.098;6.414;2023-04-24T09:17:16;5.53;;;3.30;;
3050;SDS011;1535;51.098;6.414;2023-04-24T09:19:43;7.43;;;6.60;;
3050;SDS011;1535;51.098;6.414;2023-04-24T09:22:10;4.60;;;4.30;;
3050;SDS011;1535;51.098;6.414;2023-04-24T09:24:37;6.07;;;5.43;;
3050;SDS011;1535;51.098;6.414;2023-04-24T09:27:06;5.97;;;5.37;;
3050;SDS011;1535;51.098;6.414;2023-04-24T09:29:33;6.63;;;6.13;;
3050;SDS011;1535;51.098;6.414;2023-04-24T09:32:06;8.47;;;4.40;;
3050;SDS011;1535;51.098;6.414;2023-04-24T09:34:47;6.07;;;4.87;;
3050;SDS011;1535;51.098;6.414;2023-04-24T09:37:20;5.07;;;4.37;;
3050;SDS011;1535;51.098;6.414;2023-04-24T09:40:06;10.03;;;4.57;;
3050;SDS011;1535;51.098;6.414;2023-04-24T09:42:36;7.77;;;6.07;;
3050;SDS011;1535;51.098;6.414;2023-04-24T09:45:04;4.20;;;3.90;;
3050;SDS011;1535;51.098;6.414;2023-04-24T09:47:36;5.80;;;4.00;;
3050;SDS011;1535;51.098;6.414;2023-04-24T09:50:09;5.53;;;4.93;;
3050;SDS011;1535;51.098;6.414;2023-04-24T09:52:39;7.43;;;4.80;;
3050;SDS011;1535;51.098;6.414;2023-04-24T09:55:11;6.40;;;5.40;;
3050;SDS011;1535;51.098;6.414;2023-04-24T09:57:49;5.67;;;4.40;;
3050;SDS011;1535;51.098;6.414;2023-04-24T10:00:18;9.00;;;5.87;;
3050;SDS011;1535;51.098;6.414;2023-04-24T10:02:49;9.70;;;6.20;;
3050;SDS011;1535;51.098;6.414;2023-04-24T10:05:18;8.17;;;5.83;;
3050;SDS011;1535;51.098;6.414;2023-04-24T10:07:48;4.37;;;4.10;;
3050;SDS011;1535;51.098;6.414;2023-04-24T10:10:16;5.83;;;4.80;;
3050;SDS011;1535;51.098;6.414;2023-04-24T10:12:43;6.57;;;5.60;;
3050;SDS011;1535;51.098;6.414;2023-04-24T10:15:12;5.27;;;4.87;;
3050;SDS011;1535;51.098;6.414;2023-04-24T10:17:42;9.50;;;6.20;;
3050;SDS011;1535;51.098;6.414;2023-04-24T10:20:17;8.67;;;7.87;;
3050;SDS011;1535;51.098;6.414;2023-04-24T10:22:46;9.27;;;8.70;;
3050;SDS011;1535;51.098;6.414;2023-04-24T10:25:15;9.40;;;8.43;;
3050;SDS011;1535;51.098;6.414;2023-04-24T10:27:42;7.57;;;7.17;;
3050;SDS011;1535;51.098;6.414;2023-04-24T10:30:13;9.70;;;8.03;;
3050;SDS011;1535;51.098;6.414;2023-04-24T10:32:40;9.00;;;8.17;;
3050;SDS011;1535;51.098;6.414;2023-04-24T10:35:08;10.97;;;9.57;;
3050;SDS011;1535;51.098;6.414;2023-04-24T10:37:36;9.60;;;8.87;;
3050;SDS011;1535;51.098;6.414;2023-04-24T10:40:07;13.90;;;9.27;;
3050;SDS011;1535;51.098;6.414;2023-04-24T10:42:36;7.87;;;7.33;;
3050;SDS011;1535;51.098;6.414;2023-04-24T10:45:06;12.43;;;8.13;;
3050;SDS011;1535;51.098;6.414;2023-04-24T10:47:43;16.40;;;6.97;;
3050;SDS011;1535;51.098;6.414;2023-04-24T10:50:17;9.10;;;7.03;;
3050;SDS011;1535;51.098;6.414;2023-04-24T10:52:45;8.43;;;6.97;;
3050;SDS011;1535;51.098;6.414;2023-04-24T10:55:12;7.33;;;6.83;;
3050;SDS011;1535;51.098;6.414;2023-04-24T10:58:01;8.27;;;7.67;;
3050;SDS011;1535;51.098;6.414;2023-04-24T11:00:28;5.17;;;4.87;;
3050;SDS011;1535;51.098;6.414;2023-04-24T11:02:57;16.73;;;7.53;;
3050;SDS011;1535;51.098;6.414;2023-04-24T11:08:12;7.57;;;6.97;;
3050;SDS011;1535;51.098;6.414;2023-04-24T11:10:41;7.10;;;6.40;;
3050;SDS011;1535;51.098;6.414;2023-04-24T11:13:10;6.77;;;6.27;;
3050;SDS011;1535;51.098;6.414;2023-04-24T11:15:38;7.87;;;6.30;;
3050;SDS011;1535;51.098;6.414;2023-04-24T11:18:13;5.33;;;4.70;;
3050;SDS011;1535;51.098;6.414;2023-04-24T11:20:42;9.53;;;7.50;;
3050;SDS011;1535;51.098;6.414;2023-04-24T11:23:09;7.40;;;7.00;;
3050;SDS011;1535;51.098;6.414;2023-04-24T11:25:39;10.20;;;9.50;;
3050;SDS011;1535;51.098;6.414;2023-04-24T11:28:06;10.00;;;9.40;;
3050;SDS011;1535;51.098;6.414;2023-04-24T11:30:33;9.23;;;8.73;;
3050;SDS011;1535;51.098;6.414;2023-04-24T11:33:03;12.20;;;10.90;;
3050;SDS011;1535;51.098;6.414;2023-04-24T11:35:36;9.73;;;9.00;;
3050;SDS011;1535;51.098;6.414;2023-04-24T11:38:06;12.53;;;10.93;;
3050;SDS011;1535;51.098;6.414;2023-04-24T11:40:33;9.97;;;9.03;;
3050;SDS011;1535;51.098;6.414;2023-04-24T11:43:00;14.83;;;9.57;;
3050;SDS011;1535;51.098;6.414;2023-04-24T11:45:29;9.60;;;8.70;;
3050;SDS011;1535;51.098;6.414;2023-04-24T11:47:57;8.30;;;7.90;;
3050;SDS011;1535;51.098;6.414;2023-04-24T11:50:25;12.40;;;11.60;;
3050;SDS011;1535;51.098;6.414;2023-04-24T11:52:56;10.80;;;9.83;;
3050;SDS011;1535;51.098;6.414;2023-04-24T11:55:26;11.87;;;10.97;;
3050;SDS011;1535;51.098;6.414;2023-04-24T11:57:53;14.13;;;11.83;;
3050;SDS011;1535;51.098;6.414;2023-04-24T12:00:22;13.30;;;12.20;;
3050;SDS011;1535;51.098;6.414;2023-04-24T12:02:50;14.13;;;13.13;;
3050;SDS011;1535;51.098;6.414;2023-04-24T12:05:20;14.73;;;13.93;;
3050;SDS011;1535;51.098;6.414;2023-04-24T12:07:48;15.13;;;14.33;;
3050;SDS011;1535;51.098;6.414;2023-04-24T12:10:21;14.77;;;13.97;;
3050;SDS011;1535;51.098;6.414;2023-04-24T12:12:48;16.73;;;15.17;;
3050;SDS011;1535;51.098;6.414;2023-04-24T12:15:16;14.60;;;13.90;;
3050;SDS011;1535;51.098;6.414;2023-04-24T12:17:44;14.57;;;13.90;;
3050;SDS011;1535;51.098;6.414;2023-04-24T12:20:12;16.30;;;15.33;;
3050;SDS011;1535;51.098;6.414;2023-04-24T12:22:43;16.43;;;15.10;;
3050;SDS011;1535;51.098;6.414;2023-04-24T12:25:11;15.83;;;15.03;;
3050;SDS011;1535;51.098;6.414;2023-04-24T12:27:40;16.67;;;15.70;;
3050;SDS011;1535;51.098;6.414;2023-04-24T12:30:10;18.37;;;16.60;;
3050;SDS011;1535;51.098;6.414;2023-04-24T12:32:40;17.47;;;16.47;;
3050;SDS011;1535;51.098;6.414;2023-04-24T12:35:08;18.33;;;17.23;;
3050;SDS011;1535;51.098;6.414;2023-04-24T12:37:35;17.37;;;16.37;;
3050;SDS011;1535;51.098;6.414;2023-04-24T12:40:05;18.40;;;17.40;;
3050;SDS011;1535;51.098;6.414;2023-04-24T12:42:33;17.40;;;16.50;;
3050;SDS011;1535;51.098;6.414;2023-04-24T12:45:03;16.60;;;15.70;;
3050;SDS011;1535;51.098;6.414;2023-04-24T12:47:30;15.37;;;14.67;;
3050;SDS011;1535;51.098;6.414;2023-04-24T12:49:58;17.37;;;16.10;;
3050;SDS011;1535;51.098;6.414;2023-04-24T12:52:25;18.87;;;17.00;;
3050;SDS011;1535;51.098;6.414;2023-04-24T12:54:53;17.17;;;16.10;;
3050;SDS011;1535;51.098;6.414;2023-04-24T12:57:21;17.97;;;16.80;;
3050;SDS011;1535;51.098;6.414;2023-04-24T12:59:48;17.30;;;16.40;;
3050;SDS011;1535;51.098;6.414;2023-04-24T13:02:17;17.07;;;16.17;;
3050;SDS011;1535;51.098;6.414;2023-04-24T13:04:44;17.23;;;16.33;;
3050;SDS011;1535;51.098;6.414;2023-04-24T13:07:12;17.90;;;17.00;;
3050;SDS011;1535;51.098;6.414;2023-04-24T13:09:39;18.57;;;17.57;;
3050;SDS011;1535;51.098;6.414;2023-04-24T13:12:08;19.47;;;17.73;;
3050;SDS011;1535;51.098;6.414;2023-04-24T13:14:35;18.60;;;17.50;;
3050;SDS011;1535;51.098;6.414;2023-04-24T13:17:02;18.23;;;17.27;;
3050;SDS011;1535;51.098;6.414;2023-04-24T13:19:34;18.03;;;17.03;;
3050;SDS011;1535;51.098;6.414;2023-04-24T13:22:02;17.97;;;16.97;;
3050;SDS011;1535;51.098;6.414;2023-04-24T13:24:29;18.53;;;17.30;;
3050;SDS011;1535;51.098;6.414;2023-04-24T13:26:57;18.97;;;17.67;;
3050;SDS011;1535;51.098;6.414;2023-04-24T13:29:25;17.10;;;16.20;;
3050;SDS011;1535;51.098;6.414;2023-04-24T13:31:52;17.90;;;16.90;;
3050;SDS011;1535;51.098;6.414;2023-04-24T13:43:32;18.43;;;16.87;;
3050;SDS011;1535;51.098;6.414;2023-04-24T13:46:00;18.30;;;17.07;;
3050;SDS011;1535;51.098;6.414;2023-04-24T13:48:27;17.63;;;16.63;;
3050;SDS011;1535;51.098;6.414;2023-04-24T13:50:55;16.90;;;16.00;;
3050;SDS011;1535;51.098;6.414;2023-04-24T13:53:22;17.47;;;16.53;;
3050;SDS011;1535;51.098;6.414;2023-04-24T13:55:49;18.87;;;17.67;;
3050;SDS011;1535;51.098;6.414;2023-04-24T13:58:16;17.53;;;16.40;;
3050;SDS011;1535;51.098;6.414;2023-04-24T14:00:46;17.27;;;16.37;;
3050;SDS011;1535;51.098;6.414;2023-04-24T14:03:13;16.03;;;15.23;;
3050;SDS011;1535;51.098;6.414;2023-04-24T14:05:40;18.43;;;17.27;;
3050;SDS011;1535;51.098;6.414;2023-04-24T14:08:07;16.97;;;15.87;;
3050;SDS011;1535;51.098;6.414;2023-04-24T14:10:34;17.13;;;16.13;;
3050;SDS011;1535;51.098;6.414;2023-04-24T14:13:01;17.57;;;16.53;;
3050;SDS011;1535;51.098;6.414;2023-04-24T14:15:28;16.40;;;15.60;;
3050;SDS011;1535;51.098;6.414;2023-04-24T14:17:56;16.10;;;15.30;;
3050;SDS011;1535;51.098;6.414;2023-04-24T14:20:23;18.30;;;17.20;;
3050;SDS011;1535;51.098;6.414;2023-04-24T14:22:50;17.00;;;16.10;;
3050;SDS011;1535;51.098;6.414;2023-04-24T14:25:18;17.77;;;16.70;;
3050;SDS011;1535;51.098;6.414;2023-04-24T14:27:47;17.70;;;16.43;;
3050;SDS011;1535;51.098;6.414;2023-04-24T14:30:14;17.10;;;16.03;;
3050;SDS011;1535;51.098;6.414;2023-04-24T14:32:42;18.27;;;16.70;;
3050;SDS011;1535;51.098;6.414;2023-04-24T14:35:11;17.73;;;16.70;;
3050;SDS011;1535;51.098;6.414;2023-04-24T14:37:38;17.13;;;16.13;;
3050;SDS011;1535;51.098;6.414;2023-04-24T14:40:08;16.80;;;16.00;;
3050;SDS011;1535;51.098;6.414;2023-04-24T14:42:35;18.70;;;17.27;;
3050;SDS011;1535;51.098;6.414;2023-04-24T14:45:02;16.40;;;15.50;;
3050;SDS011;1535;51.098;6.414;2023-04-24T14:47:29;16.47;;;15.67;;
3050;SDS011;1535;51.098;6.414;2023-04-24T14:49:56;16.10;;;15.30;;
3050;SDS011;1535;51.098;6.414;2023-04-24T14:52:25;17.07;;;16.20;;
3050;SDS011;1535;51.098;6.414;2023-04-24T14:54:52;18.37;;;17.27;;
3050;SDS011;1535;51.098;6.414;2023-04-24T14:57:20;17.90;;;16.80;;
3050;SDS011;1535;51.098;6.414;2023-04-24T14:59:49;17.17;;;16.27;;
3050;SDS011;1535;51.098;6.414;2023-04-24T15:02:16;19.40;;;18.00;;
3050;SDS011;1535;51.098;6.414;2023-04-24T15:04:43;17.63;;;16.63;;
3050;SDS011;1535;51.098;6.414;2023-04-24T15:07:11;17.70;;;16.50;;
3050;SDS011;1535;51.098;6.414;2023-04-24T15:09:40;18.70;;;17.20;;
3050;SDS011;1535;51.098;6.414;2023-04-24T15:12:07;16.47;;;15.67;;
3050;SDS011;1535;51.098;6.414;2023-04-24T15:14:37;16.30;;;15.50;;
3050;SDS011;1535;51.098;6.414;2023-04-24T15:17:04;16.63;;;15.83;;
3050;SDS011;1535;51.098;6.414;2023-04-24T15:19:31;17.10;;;16.10;;
3050;SDS011;1535;51.098;6.414;2023-04-24T15:21:58;17.73;;;16.73;;
3050;SDS011;1535;51.098;6.414;2023-04-24T15:24:25;17.20;;;16.40;;
3050;SDS011;1535;51.098;6.414;2023-04-24T15:26:54;17.77;;;16.87;;
3050;SDS011;1535;51.098;6.414;2023-04-24T15:29:22;17.03;;;16.23;;
3050;SDS011;1535;51.098;6.414;2023-04-24T15:31:49;18.10;;;17.00;;
3050;SDS011;1535;51.098;6.414;2023-04-24T15:34:16;17.67;;;16.50;;
3050;SDS011;1535;51.098;6.414;2023-04-24T15:36:43;16.90;;;16.00;;
3050;SDS011;1535;51.098;6.414;2023-04-24T15:39:10;17.47;;;16.57;;
3050;SDS011;1535;51.098;6.414;2023-04-24T15:41:38;16.90;;;16.10;;
3050;SDS011;1535;51.098;6.414;2023-04-24T15:44:06;18.00;;;17.00;;
3050;SDS011;1535;51.098;6.414;2023-04-24T15:46:34;16.37;;;15.60;;
3050;SDS011;1535;51.098;6.414;2023-04-24T15:49:01;16.73;;;15.90;;
3050;SDS011;1535;51.098;6.414;2023-04-24T15:51:28;19.20;;;17.70;;
3050;SDS011;1535;51.098;6.414;2023-04-24T15:53:57;19.60;;;18.30;;
3050;SDS011;1535;51.098;6.414;2023-04-24T15:56:24;16.20;;;15.40;;
3050;SDS011;1535;51.098;6.414;2023-04-24T15:58:53;16.90;;;16.10;;
3050;SDS011;1535;51.098;6.414;2023-04-24T16:01:22;17.50;;;16.50;;
3050;SDS011;1535;51.098;6.414;2023-04-24T16:03:49;17.03;;;16.20;;
3050;SDS011;1535;51.098;6.414;2023-04-24T16:06:16;18.90;;;16.87;;
3050;SDS011;1535;51.098;6.414;2023-04-24T16:08:43;17.50;;;16.57;;
3050;SDS011;1535;51.098;6.414;2023-04-24T16:11:11;17.60;;;16.60;;
3050;SDS011;1535;51.098;6.414;2023-04-24T16:13:38;18.27;;;16.90;;
3050;SDS011;1535;51.098;6.414;2023-04-24T16:16:05;18.40;;;17.43;;
3050;SDS011;1535;51.098;6.414;2023-04-24T16:18:34;17.70;;;16.73;;
3050;SDS011;1535;51.098;6.414;2023-04-24T16:21:01;18.00;;;16.90;;
3050;SDS011;1535;51.098;6.414;2023-04-24T16:23:28;17.00;;;16.20;;
3050;SDS011;1535;51.098;6.414;2023-04-24T16:25:55;17.73;;;16.83;;
3050;SDS011;1535;51.098;6.414;2023-04-24T16:28:22;17.30;;;16.40;;